createdAt,value
2022-07-29T00:28:20.660Z,18.2
2022-07-29T00:38:21.090Z,18.1
2022-07-29T00:48:21.484Z,18.1
2022-07-29T01:08:22.426Z,17.8
2022-07-29T01:38:23.911Z,17.5
2022-07-29T01:58:24.781Z,17.5
2022-07-29T04:48:33.786Z,17
2022-07-29T04:58:34.356Z,16.7
2022-07-29T05:18:36.078Z,14.9
2022-07-29T05:48:37.972Z,14.8
2022-07-29T05:58:38.852Z,14.8
2022-07-29T06:08:39.077Z,15.2
2022-07-29T06:18:39.722Z,15.1
2022-07-29T06:28:40.516Z,15.2
2022-07-29T06:48:41.315Z,16
2022-07-29T06:58:41.567Z,16.2
2022-07-29T07:08:42.551Z,16.2
2022-07-29T07:18:42.614Z,16.8
2022-07-29T07:28:42.695Z,17.2
2022-07-29T07:38:42.771Z,17.6
2022-07-29T07:48:43.662Z,17.8
2022-07-29T08:08:45.138Z,18
2022-07-29T08:18:45.628Z,18.2
2022-07-29T08:28:46.486Z,18.5
2022-07-29T08:29:08.420Z,18.5
2022-07-29T08:38:52.964Z,18.8
2022-07-29T08:48:53.358Z,18.6
2022-07-29T08:58:53.884Z,18.7
2022-07-29T09:08:54.035Z,18.5
2022-07-29T09:18:54.559Z,18.6
2022-07-29T09:28:55.290Z,18.6
2022-07-29T09:38:56.302Z,18.6
2022-07-29T09:48:57.080Z,18.5
2022-07-29T09:58:57.657Z,18.4
2022-07-29T10:08:58.561Z,17.9
2022-07-29T10:18:59.354Z,17.8
2022-07-29T10:28:59.897Z,18
2022-07-29T10:39:00.842Z,17.9
2022-07-29T10:59:01.517Z,17.9
2022-07-29T11:09:02.455Z,18
2022-07-29T11:19:03.110Z,18.1
2022-07-29T11:29:03.922Z,18
2022-07-29T11:39:03.972Z,17.9
2022-07-29T11:49:04.179Z,17.6
2022-07-29T11:59:04.388Z,17.8
2022-07-29T12:09:04.754Z,17.8
2022-07-29T12:19:05.365Z,17.9
2022-07-29T12:29:11.204Z,18.3
2022-07-29T12:49:06.415Z,18.7
2022-07-29T12:59:07.214Z,19.2
2022-07-29T13:09:08.176Z,20.2
2022-07-29T13:19:08.756Z,20
2022-07-29T13:29:09.511Z,20.4
2022-07-29T14:09:11.358Z,21.8
2022-07-29T14:29:12.056Z,22.2
2022-07-29T14:39:12.929Z,22.3
2022-07-29T14:49:13.102Z,22.8
2022-07-29T14:59:13.403Z,22.9
2022-07-29T15:09:14.228Z,23
2022-07-29T15:19:14.629Z,23.4
2022-07-29T15:29:15.201Z,23.5
2022-07-29T15:39:16.210Z,23.6
2022-07-29T15:49:16.774Z,23.5
2022-07-29T15:59:21.873Z,23.6
2022-07-29T16:09:18.021Z,23.7
2022-07-29T16:19:18.962Z,24.1
2022-07-29T16:29:19.857Z,23.8
2022-07-29T16:49:20.778Z,23.9
2022-07-29T16:59:21.518Z,23.8
2022-07-29T17:09:22.288Z,23.7
2022-07-29T17:19:22.417Z,23.6
2022-07-29T17:29:22.794Z,23.2
2022-07-29T17:39:23.007Z,23
2022-07-29T17:49:23.487Z,22.9
2022-07-29T17:59:23.601Z,22.8
2022-07-29T18:09:24.399Z,22.8
2022-07-29T18:19:25.188Z,22.7
2022-07-29T18:29:26.009Z,22.6
2022-07-29T18:39:26.496Z,22.6
2022-07-29T18:49:27.339Z,22.4
2022-07-29T18:59:28.050Z,22.3
2022-07-29T19:09:28.964Z,22.1
2022-07-29T19:19:29.512Z,21.9
2022-07-29T19:39:31.859Z,21.4
2022-07-29T19:59:32.254Z,20.8
2022-07-29T20:19:33.218Z,20
2022-07-29T20:39:35.175Z,19.4
2022-07-29T20:49:35.232Z,19.2
2022-07-29T20:59:35.357Z,19.1
2022-07-29T21:09:36.333Z,18.9
2022-07-29T21:19:36.812Z,18.7
2022-07-29T21:29:36.857Z,18.4
2022-07-29T21:39:37.812Z,18.3
2022-07-29T21:59:38.237Z,18
2022-07-29T22:29:40.394Z,17.7
2022-07-29T22:59:41.873Z,17.9
2022-07-29T23:09:42.332Z,17.8
2022-07-29T23:19:42.850Z,18.1
